Pagina principale
METAR-TAF:

METAR-TAF

Aeroporti :

Aeroporto di Dakar-Léopold Sedar Senghor

Dakar, Senegal

latitudine: 14-44N, longitudine: 017-30W, altezza: 27 m

Osservazione

Il bollettino è stato emesso 3 ore e 10 minuti fa, alle 00:00 UTC
Vento 10 kt da nord
Temperature 27°C
Umidità 84%
Pressione 1012 hPa
Visibilità: 3000 m
polvere diffusa

METAR: GOOY 230000Z 36010KT 3000 DU NSC 27/24 Q1012

Ora: 03:10 (03:10 UTC)

Previsione

Il bollettino è stato emesso 3 ore e 40 minuti fa, alle 23:30 UTC
Previsione valida dal 23 alle 00 UTC al 24 alle 06 UTC
Vento 13 kt da nord
Visibilità: 3000 m
Nubi sparse ad un'altezza di 1300 ft
polvere diffusa

TAF: GOOY 222330Z 2300/2406 36013KT 3000 DU SCT013

Osservazioni e previsioni meteorologiche di più di 4000 aeroporti (messaggi METAR e TAF).

Le stazioni disponibili sono rappresentate dai dischi gialli e rossi sulla carta.

Puntare il mouse per vedere il nome della stazione.

Clicca sopra per visualizzare le osservazioni e previsioni meteorologiche.

Per cambiare la mappa : fare clic sui pulsanti verdi con una croce nera per ingrandire, il pulsante verde con un trattino per diminuire, o sulla freccia verde per le mappe adiacenti.


METAR-TAF: